Time;durP1;ratioP1;P1;durP2;ratioP2;P2;SDS_P1;SDS_P2;PMS_P1;PMS_P2;Temp;Humidity;BMP_temperature;BMP_pressure;BME280_temperature;BME280_humidity;BME280_pressure;Samples;Min_cycle;Max_cycle;Signal;HPM_P1;HPM_P2
2023/05/02 00:01:36;;;;;;;43.72;30.30;;;11.80;99.90;;;;;;5054210;28;20021;-66
2023/05/02 00:04:02;;;;;;;46.90;31.10;;;11.70;99.90;;;;;;5054237;28;20036;-66
2023/05/02 00:06:30;;;;;;;46.78;32.17;;;11.70;99.90;;;;;;5053973;28;20486;-66
2023/05/02 00:08:55;;;;;;;49.38;33.10;;;11.70;99.90;;;;;;5053455;28;20043;-65
2023/05/02 00:11:23;;;;;;;50.95;32.47;;;11.70;99.90;;;;;;5053164;28;20120;-65
2023/05/02 00:13:49;;;;;;;50.65;33.90;;;11.60;99.90;;;;;;5053829;28;20031;-65
2023/05/02 00:16:14;;;;;;;47.72;33.72;;;11.60;99.90;;;;;;5053339;28;20104;-65
2023/05/02 00:18:40;;;;;;;48.60;33.55;;;11.50;99.90;;;;;;5053872;28;20110;-65
2023/05/02 00:21:06;;;;;;;51.35;35.65;;;11.50;99.90;;;;;;5054020;28;20029;-65
2023/05/02 00:23:31;;;;;;;52.88;35.63;;;11.50;99.90;;;;;;5053736;28;20036;-65
2023/05/02 00:25:57;;;;;;;53.20;34.28;;;11.50;99.90;;;;;;5053492;28;20021;-65
2023/05/02 00:28:23;;;;;;;50.80;35.03;;;11.60;99.90;;;;;;5053198;28;20039;-65
2023/05/02 00:30:48;;;;;;;51.55;34.78;;;11.50;99.90;;;;;;5053146;28;20036;-66
2023/05/02 00:33:14;;;;;;;54.35;36.38;;;11.50;99.90;;;;;;5053717;28;20031;-66
2023/05/02 00:35:40;;;;;;;54.67;37.25;;;11.50;99.90;;;;;;5053393;28;20032;-66
2023/05/02 00:38:06;;;;;;;57.83;37.55;;;11.50;99.90;;;;;;5053140;28;20021;-65
2023/05/02 00:40:42;;;;;;;51.60;36.03;;;11.50;99.90;;;;;;5053756;28;20037;-65
2023/05/02 00:43:08;;;;;;;56.35;37.03;;;11.50;99.90;;;;;;5053756;28;20087;-65
2023/05/02 00:45:33;;;;;;;59.40;37.63;;;11.50;99.90;;;;;;5053573;28;20379;-65
2023/05/02 00:47:59;;;;;;;62.05;40.25;;;11.50;99.90;;;;;;5053371;28;20078;-65
2023/05/02 00:50:26;;;;;;;58.85;38.50;;;11.50;99.90;;;;;;5053292;28;20025;-65
2023/05/02 00:52:54;;;;;;;65.68;39.58;;;11.50;99.90;;;;;;5053668;28;20039;-65
2023/05/02 00:55:20;;;;;;;63.17;41.28;;;11.50;99.90;;;;;;5053545;28;20494;-65
2023/05/02 00:57:45;;;;;;;65.40;40.95;;;11.50;99.90;;;;;;5053214;28;20117;-65
2023/05/02 01:00:12;;;;;;;65.45;39.88;;;11.40;99.90;;;;;;5053377;28;20040;-65
2023/05/02 01:02:49;;;;;;;65.78;40.53;;;11.40;99.90;;;;;;5053280;28;20025;-65
2023/05/02 01:05:24;;;;;;;69.18;42.30;;;11.40;99.90;;;;;;5053378;28;20039;-65
2023/05/02 01:08:18;;;;;;;72.32;43.03;;;11.40;99.90;;;;;;5053143;28;20387;-65
2023/05/02 01:11:10;;;;;;;71.45;44.08;;;11.40;99.90;;;;;;5052073;28;20438;-66
2023/05/02 01:13:37;;;;;;;70.30;43.88;;;11.30;99.90;;;;;;5053565;28;20035;-65
2023/05/02 01:16:06;;;;;;;63.97;42.08;;;11.30;99.90;;;;;;5053458;28;20061;-65
2023/05/02 01:18:37;;;;;;;72.70;43.67;;;11.30;99.90;;;;;;5056797;28;20025;-66
2023/05/02 01:21:06;;;;;;;75.45;44.28;;;11.20;99.90;;;;;;5056452;28;20025;-66
2023/05/02 01:24:12;;;;;;;73.95;44.05;;;11.20;99.90;;;;;;5057278;28;20402;-65
2023/05/02 01:27:06;;;;;;;75.00;44.55;;;11.20;99.90;;;;;;5056267;28;20115;-65
2023/05/02 01:29:33;;;;;;;74.90;44.88;;;11.20;99.90;;;;;;5055856;28;20033;-65
2023/05/02 01:32:01;;;;;;;74.47;43.58;;;11.10;99.90;;;;;;5056642;28;20025;-65
2023/05/02 01:34:28;;;;;;;69.68;42.33;;;11.10;99.90;;;;;;5056184;28;20471;-66
2023/05/02 01:36:56;;;;;;;72.53;43.13;;;11.10;99.90;;;;;;5056780;28;20052;-65
2023/05/02 01:39:23;;;;;;;80.32;44.97;;;11.00;99.90;;;;;;5056838;28;20059;-65
2023/05/02 01:41:51;;;;;;;72.65;43.45;;;11.00;99.90;;;;;;5056666;28;20120;-66
2023/05/02 01:44:20;;;;;;;77.20;45.08;;;10.90;99.90;;;;;;5055954;28;20029;-65
2023/05/02 01:46:47;;;;;;;79.22;45.95;;;10.90;99.90;;;;;;5056686;28;20456;-65
2023/05/02 01:49:14;;;;;;;87.32;45.80;;;10.80;99.90;;;;;;5056245;28;20079;-65
2023/05/02 01:51:44;;;;;;;84.95;46.22;;;10.70;99.90;;;;;;5055787;28;20031;-65
2023/05/02 01:54:12;;;;;;;81.00;46.00;;;10.60;99.90;;;;;;5056262;28;20071;-65
2023/05/02 01:56:38;;;;;;;84.88;47.05;;;10.50;99.90;;;;;;5055573;28;20083;-65
2023/05/02 01:59:07;;;;;;;89.45;47.25;;;10.50;99.90;;;;;;5056448;28;20024;-65
2023/05/02 02:01:35;;;;;;;85.95;47.33;;;10.40;99.90;;;;;;5055796;28;20079;-65
2023/05/02 02:04:01;;;;;;;89.85;47.65;;;10.40;99.90;;;;;;5055917;28;20108;-65
2023/05/02 02:06:27;;;;;;;88.65;47.88;;;10.40;99.90;;;;;;5056272;28;20102;-66
2023/05/02 02:08:53;;;;;;;90.13;50.17;;;10.50;99.90;;;;;;5055393;28;20045;-65
2023/05/02 02:11:26;;;;;;;90.07;47.95;;;10.50;99.90;;;;;;5055640;28;20115;-65
2023/05/02 02:14:00;;;;;;;90.37;48.53;;;10.40;99.90;;;;;;5056105;28;20021;-65
2023/05/02 02:16:30;;;;;;;94.25;46.45;;;10.50;99.90;;;;;;5055362;28;20255;-65
2023/05/02 02:18:57;;;;;;;93.00;48.95;;;10.50;99.90;;;;;;5055684;28;20083;-65
2023/05/02 02:21:27;;;;;;;90.72;48.00;;;10.50;99.90;;;;;;5054934;28;20116;-65
2023/05/02 02:23:56;;;;;;;92.78;47.70;;;10.50;99.90;;;;;;5055557;28;20028;-65
2023/05/02 02:26:22;;;;;;;95.25;48.03;;;10.50;99.90;;;;;;5055657;28;20486;-65
2023/05/02 02:28:48;;;;;;;90.82;47.45;;;10.50;99.90;;;;;;5055346;28;20380;-65
2023/05/02 02:31:13;;;;;;;90.95;48.33;;;10.50;99.90;;;;;;5055182;28;20033;-65
2023/05/02 02:33:39;;;;;;;95.78;49.00;;;10.50;99.90;;;;;;5055760;28;20406;-65
2023/05/02 02:36:20;;;;;;;92.55;48.80;;;10.50;99.90;;;;;;5055459;28;20059;-65
2023/05/02 02:39:25;;;;;;;98.18;48.33;;;10.50;99.90;;;;;;5055342;28;20029;-65
2023/05/02 02:42:17;;;;;;;91.38;47.13;;;10.50;99.90;;;;;;5054553;28;20057;-65
2023/05/02 02:45:00;;;;;;;92.53;48.28;;;10.50;99.90;;;;;;5054611;28;20068;-65
2023/05/02 02:47:32;;;;;;;96.15;48.13;;;10.50;99.90;;;;;;5055184;28;20075;-67
2023/05/02 02:50:28;;;;;;;95.53;48.80;;;10.50;99.90;;;;;;5055260;28;20033;-65
2023/05/02 02:53:01;;;;;;;98.07;47.42;;;10.50;99.90;;;;;;5055134;28;20116;-65
2023/05/02 02:55:51;;;;;;;95.25;48.58;;;10.40;99.90;;;;;;5055387;28;20478;-65
2023/05/02 02:58:56;;;;;;;90.18;48.38;;;10.40;99.90;;;;;;5054107;28;20025;-65
2023/05/02 03:01:24;;;;;;;94.35;46.25;;;10.40;99.90;;;;;;5054203;28;20064;-65
2023/05/02 03:03:52;;;;;;;98.35;48.30;;;10.40;99.90;;;;;;5054225;28;20017;-65
2023/05/02 03:06:18;;;;;;;95.95;48.72;;;10.40;99.90;;;;;;5054658;28;20477;-65
2023/05/02 03:08:44;;;;;;;96.57;49.33;;;10.40;99.90;;;;;;5054486;28;20092;-65
2023/05/02 03:11:09;;;;;;;95.85;48.03;;;10.40;99.90;;;;;;5054776;28;20064;-65
2023/05/02 03:13:35;;;;;;;97.05;48.63;;;10.40;99.90;;;;;;5054632;28;20115;-65
2023/05/02 03:16:30;;;;;;;94.18;47.65;;;10.40;99.90;;;;;;5054393;28;20035;-65
2023/05/02 03:18:55;;;;;;;93.57;47.75;;;10.40;99.90;;;;;;5054554;28;20023;-65
2023/05/02 03:21:21;;;;;;;93.00;44.15;;;10.40;99.90;;;;;;5054243;28;20028;-65
2023/05/02 03:23:47;;;;;;;90.30;46.10;;;10.30;99.90;;;;;;5054681;28;20424;-65
2023/05/02 03:26:12;;;;;;;90.60;47.08;;;10.30;99.90;;;;;;5054026;28;20498;-65
2023/05/02 03:28:38;;;;;;;90.72;46.58;;;10.30;99.90;;;;;;5054388;28;20375;-65
2023/05/02 03:31:03;;;;;;;99.47;46.80;;;10.30;99.90;;;;;;5054448;28;20029;-65
2023/05/02 03:33:29;;;;;;;92.95;45.38;;;10.30;99.90;;;;;;5054350;28;20029;-66
2023/05/02 03:35:54;;;;;;;92.80;46.35;;;10.30;99.90;;;;;;5054557;28;20074;-65
2023/05/02 03:38:20;;;;;;;91.55;46.50;;;10.30;99.90;;;;;;5054104;28;20029;-65
2023/05/02 03:40:46;;;;;;;92.22;46.42;;;10.30;99.90;;;;;;5054138;28;20029;-65
2023/05/02 03:43:11;;;;;;;93.93;47.72;;;10.40;99.90;;;;;;5053557;28;20141;-65
2023/05/02 03:45:37;;;;;;;95.75;47.88;;;10.40;99.90;;;;;;5054066;28;20037;-65
2023/05/02 03:48:02;;;;;;;93.10;47.78;;;10.40;99.90;;;;;;5054384;28;20029;-65
2023/05/02 03:50:28;;;;;;;96.10;48.30;;;10.40;99.90;;;;;;5053621;28;20031;-65
2023/05/02 03:52:53;;;;;;;97.03;49.63;;;10.40;99.90;;;;;;5054065;28;20021;-65
2023/05/02 03:55:20;;;;;;;96.15;48.97;;;10.40;99.90;;;;;;5054075;28;20559;-65
2023/05/02 03:57:46;;;;;;;91.25;47.63;;;10.40;99.90;;;;;;5054265;28;20021;-65
2023/05/02 04:00:11;;;;;;;98.68;48.42;;;10.40;99.90;;;;;;5053468;28;20383;-65
2023/05/02 04:02:37;;;;;;;97.90;47.72;;;10.40;99.90;;;;;;5053894;28;20061;-65
2023/05/02 04:05:03;;;;;;;92.22;44.95;;;10.40;99.90;;;;;;5053852;28;20467;-65
2023/05/02 04:07:28;;;;;;;89.07;44.75;;;10.40;99.90;;;;;;5053832;28;20032;-65
2023/05/02 04:09:54;;;;;;;89.53;44.95;;;10.40;99.90;;;;;;5053134;28;20499;-66
2023/05/02 04:12:20;;;;;;;92.47;44.05;;;10.40;99.90;;;;;;5053461;28;20037;-65
2023/05/02 04:14:45;;;;;;;80.30;40.95;;;10.50;99.90;;;;;;5053935;28;20075;-65
2023/05/02 04:17:11;;;;;;;77.70;40.22;;;10.50;99.90;;;;;;5053532;28;20103;-65
2023/05/02 04:19:36;;;;;;;79.88;40.90;;;10.50;99.90;;;;;;5053933;28;20488;-66
2023/05/02 04:22:02;;;;;;;78.90;38.45;;;10.50;99.90;;;;;;5053741;28;20547;-65
2023/05/02 04:24:28;;;;;;;82.20;38.17;;;10.40;99.90;;;;;;5053471;28;20033;-65
2023/05/02 04:26:53;;;;;;;76.40;38.28;;;10.40;99.90;;;;;;5053649;28;20029;-65
2023/05/02 04:29:19;;;;;;;79.93;39.58;;;10.40;99.90;;;;;;5052905;28;20028;-65
2023/05/02 04:31:45;;;;;;;76.70;36.28;;;10.40;99.90;;;;;;5053965;28;20522;-65
2023/05/02 04:34:10;;;;;;;78.13;39.38;;;10.40;99.90;;;;;;5053983;28;20029;-65
2023/05/02 04:36:36;;;;;;;68.63;36.58;;;10.40;99.90;;;;;;5053751;28;20025;-65
2023/05/02 04:39:03;;;;;;;76.43;36.45;;;10.40;99.90;;;;;;5053924;28;20047;-65
2023/05/02 04:41:29;;;;;;;79.10;38.30;;;10.50;99.90;;;;;;5053550;28;20494;-65
2023/05/02 04:43:54;;;;;;;74.70;37.05;;;10.50;99.90;;;;;;5053339;28;20143;-66
2023/05/02 04:46:20;;;;;;;69.10;35.20;;;10.50;99.90;;;;;;5053321;28;20079;-65
2023/05/02 04:48:46;;;;;;;66.85;34.35;;;10.50;99.90;;;;;;5053760;28;20363;-65
2023/05/02 04:51:11;;;;;;;66.20;35.17;;;10.50;99.90;;;;;;5053418;28;20114;-65
2023/05/02 04:53:37;;;;;;;65.47;32.20;;;10.50;99.90;;;;;;5057526;28;20115;-65
2023/05/02 04:56:03;;;;;;;71.75;34.53;;;10.50;99.90;;;;;;5057185;28;20025;-65
2023/05/02 04:58:28;;;;;;;65.43;33.28;;;10.60;99.90;;;;;;5057268;28;20021;-65
2023/05/02 05:00:54;;;;;;;65.60;32.20;;;10.60;99.90;;;;;;5057553;28;20064;-65
2023/05/02 05:03:20;;;;;;;68.60;32.95;;;10.50;99.90;;;;;;5057058;28;20036;-65
2023/05/02 05:05:46;;;;;;;64.70;33.13;;;10.50;99.90;;;;;;5056871;28;20099;-65
2023/05/02 05:08:12;;;;;;;66.68;32.95;;;10.50;99.90;;;;;;5057079;28;20090;-65
2023/05/02 05:10:39;;;;;;;71.40;33.40;;;10.50;99.90;;;;;;5056083;28;20060;-65
2023/05/02 05:13:05;;;;;;;68.78;31.63;;;10.50;99.90;;;;;;5056437;28;20467;-65
2023/05/02 05:15:31;;;;;;;68.32;33.60;;;10.50;99.90;;;;;;5057143;28;20025;-65
2023/05/02 05:17:56;;;;;;;60.50;32.05;;;10.50;99.90;;;;;;5056623;28;20493;-65
2023/05/02 05:20:22;;;;;;;61.47;30.52;;;10.50;99.90;;;;;;5056332;28;20316;-65
2023/05/02 05:22:47;;;;;;;57.17;29.85;;;10.50;99.90;;;;;;5057115;28;20075;-65
2023/05/02 05:25:13;;;;;;;61.88;30.25;;;10.60;99.90;;;;;;5056333;28;20041;-65
2023/05/02 05:27:39;;;;;;;57.03;30.38;;;10.60;99.90;;;;;;5056977;28;20085;-65
2023/05/02 05:30:05;;;;;;;55.80;28.58;;;10.60;99.90;;;;;;5056832;28;20120;-65
2023/05/02 05:32:32;;;;;;;60.03;29.17;;;10.60;99.90;;;;;;5056994;28;20226;-65
2023/05/02 05:34:58;;;;;;;57.60;28.90;;;10.60;99.90;;;;;;5056993;28;20029;-65
2023/05/02 05:37:23;;;;;;;53.08;27.30;;;10.50;99.90;;;;;;5056846;28;20078;-65
2023/05/02 05:39:49;;;;;;;50.28;25.98;;;10.50;99.90;;;;;;5056331;28;20029;-65
2023/05/02 05:42:15;;;;;;;46.22;22.85;;;10.60;99.90;;;;;;5055963;28;20044;-65
2023/05/02 05:44:41;;;;;;;42.78;21.73;;;10.50;99.90;;;;;;5055731;28;20510;-65
2023/05/02 05:47:06;;;;;;;34.42;18.30;;;10.50;99.90;;;;;;5056582;28;20030;-65
2023/05/02 05:49:35;;;;;;;32.08;14.98;;;10.50;99.90;;;;;;5056561;28;20064;-65
2023/05/02 05:52:01;;;;;;;24.58;13.32;;;10.40;99.90;;;;;;5055981;28;20107;-65
2023/05/02 05:54:27;;;;;;;17.90;10.63;;;10.40;99.90;;;;;;5056182;28;20025;-65
2023/05/02 05:56:53;;;;;;;14.38;8.85;;;10.30;99.90;;;;;;5056231;28;20029;-65
2023/05/02 05:59:18;;;;;;;13.88;8.25;;;10.30;99.90;;;;;;5056415;28;20468;-65
2023/05/02 06:01:44;;;;;;;14.00;7.85;;;10.30;99.90;;;;;;5055642;28;20029;-65
2023/05/02 06:04:09;;;;;;;10.85;7.78;;;10.20;99.90;;;;;;5055396;28;20056;-65
2023/05/02 06:06:35;;;;;;;12.77;7.30;;;10.20;99.90;;;;;;5056283;28;20029;-65
2023/05/02 06:09:01;;;;;;;12.98;7.15;;;10.20;99.90;;;;;;5055681;28;20043;-65
2023/05/02 06:11:26;;;;;;;13.85;7.70;;;10.40;99.90;;;;;;5055784;28;20029;-65
2023/05/02 06:13:52;;;;;;;13.45;7.30;;;10.50;99.90;;;;;;5055936;28;20033;-65
2023/05/02 06:16:18;;;;;;;10.70;7.55;;;10.50;99.90;;;;;;5053472;28;20075;-65
2023/05/02 06:18:45;;;;;;;12.10;8.02;;;10.50;99.90;;;;;;5050824;28;20025;-65
2023/05/02 06:21:10;;;;;;;11.60;6.40;;;10.70;99.90;;;;;;5054406;28;20020;-66
2023/05/02 06:23:36;;;;;;;9.55;6.78;;;10.70;99.90;;;;;;5055626;28;20028;-65
2023/05/02 06:26:03;;;;;;;10.65;6.63;;;10.80;99.90;;;;;;5053744;28;20041;-65
2023/05/02 06:28:29;;;;;;;10.35;6.18;;;10.80;99.90;;;;;;5064735;28;20035;-65
2023/05/02 06:30:59;;;;;;;8.60;6.43;;;11.00;99.90;;;;;;5073364;28;20366;-65
2023/05/02 06:33:26;;;;;;;11.85;6.00;;;11.00;99.90;;;;;;5054810;28;20025;-65
2023/05/02 06:35:52;;;;;;;13.77;5.65;;;11.00;99.90;;;;;;5054558;28;20056;-65
2023/05/02 06:38:19;;;;;;;11.88;5.70;;;11.20;99.90;;;;;;5055209;28;20021;-65
2023/05/02 06:40:45;;;;;;;8.82;6.05;;;11.20;99.90;;;;;;5055351;28;20427;-65
2023/05/02 06:43:11;;;;;;;8.80;5.70;;;11.20;99.90;;;;;;5055086;28;20036;-65
2023/05/02 06:45:37;;;;;;;10.32;5.80;;;11.20;99.90;;;;;;5055381;28;20459;-66
2023/05/02 06:48:02;;;;;;;10.40;5.53;;;11.40;99.90;;;;;;5055029;28;20116;-65
2023/05/02 06:50:28;;;;;;;11.32;5.80;;;11.40;93.50;;;;;;5054917;28;20037;-65
2023/05/02 06:52:54;;;;;;;10.07;6.10;;;11.40;96.80;;;;;;5054353;28;20021;-66
2023/05/02 06:55:20;;;;;;;12.45;6.35;;;11.50;97.60;;;;;;5054965;28;20032;-66
2023/05/02 06:57:47;;;;;;;10.95;5.70;;;11.50;94.70;;;;;;5055053;28;20032;-66
2023/05/02 07:00:15;;;;;;;12.35;5.57;;;11.70;74.90;;;;;;5055174;28;20036;-66
2023/05/02 07:02:41;;;;;;;11.32;5.32;;;11.80;76.40;;;;;;5054945;28;20029;-66
2023/05/02 07:05:07;;;;;;;7.88;5.25;;;11.80;66.50;;;;;;5054899;28;20421;-66
2023/05/02 07:07:32;;;;;;;11.02;5.35;;;11.80;62.90;;;;;;5054370;28;20398;-66
2023/05/02 07:09:58;;;;;;;9.50;5.35;;;11.90;64.20;;;;;;5054056;28;20049;-66
2023/05/02 07:12:24;;;;;;;7.45;5.25;;;11.80;59.20;;;;;;5054454;28;20024;-66
2023/05/02 07:14:50;;;;;;;6.90;4.95;;;11.60;48.20;;;;;;5054117;28;20548;-66
2023/05/02 07:17:16;;;;;;;9.23;5.53;;;11.50;46.50;;;;;;5054895;28;20025;-65
2023/05/02 07:19:41;;;;;;;6.10;4.60;;;11.30;54.90;;;;;;5054288;28;20029;-66
2023/05/02 07:22:07;;;;;;;3.80;3.20;;;10.80;74.90;;;;;;5054853;28;20043;-66
2023/05/02 07:24:32;;;;;;;6.03;3.05;;;10.50;89.10;;;;;;5053866;28;20150;-66
2023/05/02 07:26:58;;;;;;;6.22;3.03;;;10.30;99.90;;;;;;5054706;28;20386;-65
2023/05/02 07:29:24;;;;;;;5.50;2.97;;;10.00;99.90;;;;;;5054415;28;20032;-65
2023/05/02 07:31:49;;;;;;;6.20;3.05;;;9.90;99.90;;;;;;5054227;28;20025;-65
2023/05/02 07:34:15;;;;;;;6.03;2.92;;;9.80;99.90;;;;;;5054375;28;20382;-66
2023/05/02 07:36:40;;;;;;;4.80;3.33;;;9.70;99.90;;;;;;5054633;28;20028;-65
2023/05/02 07:39:06;;;;;;;6.20;3.55;;;9.50;99.90;;;;;;5053748;28;20036;-65
2023/05/02 07:41:31;;;;;;;7.28;3.60;;;9.40;99.90;;;;;;5054403;28;20025;-65
2023/05/02 07:43:57;;;;;;;10.38;4.03;;;9.30;99.90;;;;;;5054278;28;20033;-65
2023/05/02 07:46:23;;;;;;;7.72;4.40;;;9.10;99.90;;;;;;5053272;28;20033;-65
2023/05/02 07:48:49;;;;;;;8.20;3.58;;;9.10;99.90;;;;;;5053927;28;20040;-65
2023/05/02 07:51:15;;;;;;;7.93;3.80;;;8.90;99.90;;;;;;5053974;28;20029;-66
2023/05/02 07:53:40;;;;;;;7.53;3.97;;;8.90;99.90;;;;;;5053995;28;20031;-65
2023/05/02 07:56:07;;;;;;;7.00;3.80;;;8.80;99.90;;;;;;5054023;28;20483;-65
2023/05/02 07:58:35;;;;;;;7.60;4.70;;;8.90;99.90;;;;;;5054064;28;20029;-66
2023/05/02 08:01:01;;;;;;;10.02;4.97;;;8.90;99.90;;;;;;5053053;28;20395;-65
2023/05/02 08:03:26;;;;;;;12.05;5.32;;;8.80;99.90;;;;;;5053647;28;20032;-65
2023/05/02 08:05:52;;;;;;;13.95;5.95;;;9.00;99.90;;;;;;5053996;28;20063;-65
2023/05/02 08:08:18;;;;;;;11.00;6.60;;;9.00;99.90;;;;;;5050903;28;20457;-65
2023/05/02 08:10:44;;;;;;;12.45;6.30;;;9.00;99.90;;;;;;5052515;28;20091;-65
2023/05/02 08:13:10;;;;;;;11.13;5.70;;;9.00;99.90;;;;;;5053566;28;20375;-65
2023/05/02 08:15:36;;;;;;;12.20;5.82;;;9.00;99.90;;;;;;5053275;28;20025;-65
2023/05/02 08:18:02;;;;;;;11.52;5.88;;;8.90;99.90;;;;;;5054049;28;20475;-65
2023/05/02 08:20:27;;;;;;;14.27;6.25;;;9.00;99.90;;;;;;5053493;28;20032;-65
2023/05/02 08:22:53;;;;;;;17.52;6.78;;;9.00;99.90;;;;;;5045852;28;20030;-66
2023/05/02 08:25:18;;;;;;;11.90;6.47;;;8.90;99.90;;;;;;5051992;28;20080;-64
2023/05/02 08:27:44;;;;;;;16.67;6.55;;;8.90;99.90;;;;;;5056270;28;20052;-64
2023/05/02 08:30:10;;;;;;;21.02;6.60;;;8.90;99.90;;;;;;5056935;28;20033;-64
2023/05/02 08:32:36;;;;;;;18.83;6.97;;;8.70;99.90;;;;;;5057004;28;20091;-64
2023/05/02 08:35:02;;;;;;;16.30;7.13;;;8.60;99.90;;;;;;5056143;28;20033;-65
2023/05/02 08:37:27;;;;;;;17.60;6.65;;;8.50;99.90;;;;;;5053806;28;20086;-65
2023/05/02 08:39:53;;;;;;;14.70;7.40;;;8.60;99.90;;;;;;5037524;28;20030;-64
2023/05/02 08:42:20;;;;;;;19.05;7.75;;;8.70;99.90;;;;;;5052051;28;20150;-65
2023/05/02 08:44:47;;;;;;;20.20;7.60;;;8.70;99.90;;;;;;5051155;28;20036;-65
2023/05/02 08:47:14;;;;;;;25.10;7.88;;;8.80;99.90;;;;;;5037717;28;20029;-65
2023/05/02 08:49:41;;;;;;;26.73;8.43;;;8.90;99.90;;;;;;5041242;28;20398;-64
2023/05/02 08:52:10;;;;;;;17.25;8.02;;;9.00;99.90;;;;;;5047767;28;20036;-64
2023/05/02 08:54:37;;;;;;;17.95;8.27;;;8.90;99.90;;;;;;5056873;28;20036;-64
2023/05/02 08:57:04;;;;;;;20.73;9.05;;;9.00;99.90;;;;;;5057109;28;20076;-64
2023/05/02 08:59:29;;;;;;;21.70;8.32;;;8.90;99.90;;;;;;5055697;28;20420;-65
2023/05/02 09:02:03;;;;;;;17.27;6.82;;;9.00;99.90;;;;;;5057252;28;20154;-64
2023/05/02 09:04:32;;;;;;;18.90;6.80;;;8.90;99.90;;;;;;5045553;28;20022;-64
2023/05/02 09:06:58;;;;;;;17.10;6.47;;;9.00;99.90;;;;;;5050743;28;20021;-65
2023/05/02 09:09:25;;;;;;;11.98;6.10;;;9.30;95.60;;;;;;5055777;28;20040;-65
2023/05/02 09:11:51;;;;;;;16.35;6.07;;;9.40;79.80;;;;;;5075894;28;20027;-65
2023/05/02 09:14:17;;;;;;;11.13;5.00;;;9.60;61.80;;;;;;5055967;28;20029;-66
2023/05/02 09:16:43;;;;;;;14.50;5.38;;;9.80;28.60;;;;;;5056563;28;20069;-66
2023/05/02 09:19:09;;;;;;;12.07;4.82;;;9.90;24.30;;;;;;5054479;28;20112;-64
2023/05/02 09:21:38;;;;;;;17.88;5.57;;;10.00;22.10;;;;;;5055702;28;20029;-65
2023/05/02 09:24:20;;;;;;;14.45;5.53;;;10.20;1.00;;;;;;5056473;28;20052;-65
2023/05/02 09:27:03;;;;;;;11.68;5.85;;;10.40;1.00;;;;;;5055128;28;20051;-66
2023/05/02 09:29:34;;;;;;;14.60;6.20;;;10.60;5.60;;;;;;5056662;28;20021;-66
2023/05/02 09:32:01;;;;;;;13.40;6.53;;;10.60;5.90;;;;;;5055443;28;20116;-66
2023/05/02 09:34:26;;;;;;;17.42;5.53;;;10.90;1.00;;;;;;5054465;28;20028;-66
2023/05/02 09:36:53;;;;;;;17.33;5.25;;;10.90;1.00;;;;;;5056090;28;20037;-66
2023/05/02 09:39:22;;;;;;;12.60;5.63;;;11.00;1.00;;;;;;5052119;28;20112;-66
2023/05/02 09:41:48;;;;;;;16.17;5.15;;;10.70;1.00;;;;;;5041958;28;20090;-66
2023/05/02 09:44:17;;;;;;;17.25;5.30;;;10.50;1.00;;;;;;5036052;28;20047;-66
2023/05/02 09:46:44;;;;;;;14.85;6.03;;;10.30;1.00;;;;;;5038199;28;20052;-65
2023/05/02 09:49:10;;;;;;;24.98;6.88;;;10.40;1.00;;;;;;5054650;28;20044;-65
2023/05/02 09:51:36;;;;;;;17.08;6.00;;;10.70;1.00;;;;;;5056065;28;20033;-66
2023/05/02 09:54:02;;;;;;;11.60;5.30;;;10.70;1.00;;;;;;5055965;28;20021;-65
2023/05/02 09:56:28;;;;;;;12.65;4.85;;;11.10;1.00;;;;;;5055339;28;20123;-65
2023/05/02 09:59:14;;;;;;;11.70;4.60;;;11.80;1.00;;;;;;5054437;28;20057;-68
2023/05/02 10:01:41;;;;;;;10.85;4.57;;;12.50;1.00;;;;;;5046910;28;20479;-67
2023/05/02 10:04:15;;;;;;;9.57;3.90;;;12.70;99.90;;;;;;5049414;28;20405;-68
2023/05/02 10:06:42;;;;;;;12.27;4.13;;;13.50;1.00;;;;;;5039460;28;20458;-68
2023/05/02 10:09:10;;;;;;;10.13;4.05;;;13.60;99.90;;;;;;5042627;28;20040;-66
2023/05/02 10:11:39;;;;;;;11.02;3.80;;;13.90;1.00;;;;;;5055773;28;20117;-66
2023/05/02 10:14:08;;;;;;;11.95;4.10;;;13.40;93.70;;;;;;5055379;28;20112;-66
2023/05/02 10:16:37;;;;;;;10.65;4.30;;;13.00;1.00;;;;;;5053370;28;20608;-66
2023/05/02 10:19:08;;;;;;;14.30;4.45;;;12.90;99.90;;;;;;5048925;28;20403;-65
2023/05/02 10:21:35;;;;;;;14.18;4.32;;;13.10;1.00;;;;;;5041726;28;20479;-64
2023/05/02 10:24:04;;;;;;;14.77;4.72;;;12.90;99.90;;;;;;5047279;28;20094;-65
2023/05/02 10:26:30;;;;;;;19.65;4.65;;;12.40;1.00;;;;;;5054411;28;20027;-65
2023/05/02 10:28:56;;;;;;;13.15;4.72;;;12.10;1.00;;;;;;5055279;28;20063;-65
2023/05/02 10:31:22;;;;;;;9.75;4.72;;;12.10;1.00;;;;;;5052789;28;20040;-65
2023/05/02 10:33:51;;;;;;;12.15;4.55;;;11.90;99.90;;;;;;5052832;28;20030;-64
2023/05/02 10:36:20;;;;;;;19.50;4.22;;;11.60;99.00;;;;;;5056402;28;20031;-66
2023/05/02 10:38:47;;;;;;;9.55;4.28;;;11.70;99.90;;;;;;5034918;28;20072;-67
2023/05/02 10:41:17;;;;;;;10.13;4.18;;;12.10;13.60;;;;;;5045540;28;20036;-65
2023/05/02 10:43:47;;;;;;;8.68;4.07;;;12.50;99.90;;;;;;5051323;28;20393;-65
2023/05/02 10:49:11;;;;;;;11.55;4.43;;;12.40;99.90;;;;;;5108925;27;20449;-64
2023/05/02 10:51:40;;;;;;;12.95;4.28;;;12.40;99.90;;;;;;5092758;28;20032;-65
2023/05/02 10:54:26;;;;;;;11.88;3.75;;;12.80;99.90;;;;;;5092004;28;20115;-65
2023/05/02 10:57:06;;;;;;;11.05;4.53;;;12.80;1.00;;;;;;5079395;28;20499;-65
2023/05/02 10:59:36;;;;;;;11.13;4.47;;;12.70;99.90;;;;;;5090486;28;20074;-66
2023/05/02 11:02:03;;;;;;;11.82;4.57;;;12.50;19.70;;;;;;5093887;28;20024;-65
2023/05/02 11:05:05;;;;;;;10.95;4.38;;;12.00;1.00;;;;;;5093440;28;20062;-65
2023/05/02 11:07:32;;;;;;;12.10;4.47;;;12.30;99.90;;;;;;5089955;28;20032;-65
2023/05/02 11:12:59;;;;;;;8.55;4.00;;;12.20;1.00;;;;;;5091346;27;20152;-65
2023/05/02 11:18:13;;;;;;;8.57;3.80;;;12.60;99.90;;;;;;5110445;27;20339;-68
2023/05/02 11:20:41;;;;;;;9.63;4.10;;;13.00;75.00;;;;;;5091603;28;20017;-65
2023/05/02 11:23:20;;;;;;;5.15;3.30;;;12.90;1.00;;;;;;5090668;28;20122;-65
2023/05/02 11:25:48;;;;;;;7.45;4.55;;;13.00;99.90;;;;;;5090091;28;20020;-66
2023/05/02 11:28:38;;;;;;;7.82;4.13;;;12.60;99.90;;;;;;5082808;28;20032;-65
2023/05/02 11:31:06;;;;;;;9.95;3.67;;;12.70;99.90;;;;;;5095565;28;20375;-65
2023/05/02 11:33:32;;;;;;;8.68;3.85;;;13.00;99.90;;;;;;5093592;28;20115;-65
2023/05/02 11:35:57;;;;;;;7.72;4.00;;;13.20;99.90;;;;;;5089694;28;20116;-64
2023/05/02 11:38:24;;;;;;;9.85;3.88;;;13.40;99.90;;;;;;5090541;28;20016;-64
2023/05/02 11:40:53;;;;;;;8.25;3.65;;;13.30;99.90;;;;;;5089962;28;20021;-64
2023/05/02 11:43:20;;;;;;;12.93;5.05;;;13.30;1.00;;;;;;5088066;28;20082;-64
2023/05/02 11:45:46;;;;;;;5.93;3.42;;;13.40;1.00;;;;;;5091352;28;20447;-64
2023/05/02 11:48:15;;;;;;;6.00;3.80;;;12.90;99.90;;;;;;5093737;28;20048;-64
2023/05/02 11:50:50;;;;;;;7.43;3.60;;;12.80;1.00;;;;;;5090136;28;20016;-64
2023/05/02 11:53:21;;;;;;;8.27;3.45;;;12.50;99.90;;;;;;5090202;28;20020;-64
2023/05/02 11:55:50;;;;;;;6.55;3.35;;;12.50;1.00;;;;;;5093728;28;20042;-64
2023/05/02 11:58:18;;;;;;;11.57;3.38;;;12.70;1.00;;;;;;5079271;28;20024;-64
2023/05/02 12:00:45;;;;;;;5.95;3.47;;;12.70;99.90;;;;;;5090994;28;20102;-64
2023/05/02 12:03:32;;;;;;;7.45;3.13;;;13.00;99.90;;;;;;5092071;28;20414;-64
2023/05/02 12:06:10;;;;;;;6.88;3.03;;;13.30;99.90;;;;;;5089441;28;20035;-64
2023/05/02 12:08:36;;;;;;;5.50;3.08;;;13.30;99.90;;;;;;5082180;28;20037;-64
2023/05/02 12:11:01;;;;;;;8.43;3.13;;;13.50;1.00;;;;;;5090015;28;20032;-64
2023/05/02 12:13:28;;;;;;;5.15;3.28;;;13.50;1.00;;;;;;5096654;28;20039;-64
2023/05/02 12:15:55;;;;;;;8.60;2.88;;;13.30;99.90;;;;;;5087853;28;20517;-65
2023/05/02 12:18:22;;;;;;;8.55;3.78;;;13.70;99.90;;;;;;5093220;28;20081;-64
2023/05/02 12:20:50;;;;;;;10.35;3.88;;;13.70;99.90;;;;;;5089739;28;20046;-64
2023/05/02 12:23:17;;;;;;;10.43;4.10;;;13.90;99.90;;;;;;5090047;28;20024;-65
2023/05/02 12:25:42;;;;;;;8.52;4.00;;;13.60;99.90;;;;;;5078970;28;20048;-64
2023/05/02 12:28:09;;;;;;;13.63;5.07;;;13.50;99.90;;;;;;5077763;28;20025;-64
2023/05/02 12:30:38;;;;;;;8.38;4.47;;;13.10;99.90;;;;;;5076416;28;20116;-64
2023/05/02 12:33:05;;;;;;;13.00;4.78;;;13.50;99.90;;;;;;5059098;28;20448;-64
2023/05/02 12:35:31;;;;;;;9.32;4.57;;;13.70;99.90;;;;;;5057352;28;20034;-64
2023/05/02 12:38:19;;;;;;;12.25;4.95;;;13.90;99.90;;;;;;5056519;28;20456;-64
2023/05/02 12:40:47;;;;;;;10.75;4.45;;;13.60;99.90;;;;;;5055805;28;20040;-66
2023/05/02 12:43:13;;;;;;;11.70;4.50;;;13.80;99.90;;;;;;5056224;28;20028;-66
2023/05/02 12:45:38;;;;;;;12.98;4.40;;;14.20;99.90;;;;;;5055278;28;20025;-66
2023/05/02 12:48:25;;;;;;;13.85;4.65;;;14.20;99.90;;;;;;5055610;28;20029;-66
2023/05/02 12:50:52;;;;;;;14.13;4.93;;;14.20;99.90;;;;;;5045195;28;20028;-64